createdAt,value
2018-01-25T17:12:28.069Z,10.10
2018-01-25T17:15:00.698Z,11.05
2018-01-25T17:17:33.772Z,11.97
2018-01-25T17:20:10.281Z,12.49
2018-01-25T17:22:44.154Z,12.22
2018-01-25T17:25:16.297Z,12.52
2018-01-25T17:27:49.559Z,12.49
2018-01-25T17:30:26.509Z,12.54
2018-01-25T17:32:59.847Z,12.45
2018-01-25T17:35:37.222Z,12.47
2018-01-25T17:38:10.010Z,12.43
2018-01-25T17:40:48.403Z,12.49
2018-01-25T17:44:45.538Z,12.72
2018-01-25T17:47:19.252Z,12.77
2018-01-25T17:49:54.470Z,12.81
2018-01-25T17:52:26.560Z,12.68
2018-01-25T17:55:03.478Z,12.69
2018-01-25T17:57:39.664Z,13.03
2018-01-25T18:00:24.222Z,12.64
2018-01-25T18:02:57.626Z,12.86
2018-01-25T18:05:32.189Z,12.73
2018-01-25T18:08:04.473Z,12.86
2018-01-25T18:10:36.188Z,13.08
2018-01-25T18:13:12.032Z,12.72
2018-01-25T18:15:47.699Z,12.53
2018-01-25T18:18:21.348Z,12.77
2018-01-25T18:20:55.573Z,12.46
2018-01-25T18:23:27.530Z,12.40
2018-01-25T18:26:07.378Z,12.42
2018-01-25T18:28:40.858Z,12.36
2018-01-25T18:31:13.825Z,12.07
2018-01-25T18:33:55.029Z,12.17
2018-01-25T18:36:29.105Z,12.29
2018-01-25T18:39:02.044Z,12.13
2018-01-25T18:41:33.823Z,12.65
2018-01-25T18:44:06.193Z,12.42
2018-01-25T18:46:38.159Z,12.29
2018-01-25T18:49:10.227Z,12.46
2018-01-25T18:51:44.223Z,12.62
2018-01-25T18:54:17.701Z,12.55
2018-01-25T18:56:51.062Z,12.79
2018-01-25T18:59:23.374Z,12.68
2018-01-25T19:01:58.350Z,12.77
2018-01-25T19:04:33.034Z,12.79
2018-01-25T19:07:04.777Z,12.79
2018-01-25T19:09:37.010Z,12.47
2018-01-25T19:12:09.106Z,12.31
2018-01-25T19:14:42.355Z,12.21
2018-01-25T19:17:15.077Z,12.29
2018-01-25T19:19:47.852Z,12.85
2018-01-25T19:22:19.560Z,12.90
2018-01-25T19:24:51.260Z,12.79
2018-01-25T19:27:24.106Z,12.96
2018-01-25T19:29:57.377Z,13.14
2018-01-25T19:32:39.811Z,12.84
2018-01-25T19:35:12.081Z,12.70
2018-01-25T19:37:44.913Z,12.57
2018-01-25T19:40:17.515Z,12.53
2018-01-25T19:42:50.369Z,12.58
2018-01-25T19:45:26.268Z,12.47
2018-01-25T19:47:59.544Z,12.54
2018-01-25T19:50:35.016Z,12.73
2018-01-25T19:53:12.528Z,12.83
2018-01-25T19:55:44.629Z,12.92
2018-01-25T19:58:17.215Z,12.93
2018-01-25T20:00:49.042Z,12.99
2018-01-25T20:03:20.970Z,13.18
2018-01-25T20:05:54.449Z,13.19
2018-01-25T20:08:26.461Z,13.05
2018-01-25T20:10:57.854Z,13.08
2018-01-25T20:13:31.081Z,13.00
2018-01-25T20:16:03.312Z,13.05
2018-01-25T20:18:35.387Z,13.21
2018-01-25T20:21:08.998Z,13.31
2018-01-25T20:23:40.881Z,13.31
2018-01-25T20:26:13.445Z,13.18
2018-01-25T20:28:50.602Z,13.27
2018-01-25T20:31:25.699Z,13.14
2018-01-25T20:33:58.018Z,13.26
2018-01-25T20:36:30.933Z,13.25
2018-01-25T20:39:04.554Z,13.31
2018-01-25T20:41:38.218Z,12.97
2018-01-25T20:44:12.169Z,13.16
2018-01-25T20:46:46.652Z,13.24
2018-01-25T20:49:28.104Z,13.22
2018-01-25T20:52:02.046Z,13.42
2018-01-25T20:54:38.879Z,13.40
2018-01-25T20:57:14.542Z,13.49
2018-01-25T20:59:51.197Z,13.38
2018-01-25T21:02:27.215Z,13.51
2018-01-25T21:05:03.398Z,13.41
2018-01-25T21:07:38.218Z,13.40
2018-01-25T21:10:16.575Z,13.47
2018-01-25T21:12:49.116Z,13.40
2018-01-25T21:15:26.207Z,13.47
2018-01-25T21:17:58.682Z,13.50
2018-01-25T21:20:34.886Z,13.51
2018-01-25T21:23:10.738Z,13.42
2018-01-25T21:25:44.016Z,13.38
2018-01-25T21:28:17.168Z,13.33
2018-01-25T21:30:51.439Z,13.49
2018-01-25T21:33:27.872Z,13.51
2018-01-25T21:36:06.873Z,13.61
2018-01-25T21:38:40.221Z,13.65
2018-01-25T21:41:18.986Z,13.58
2018-01-25T21:43:52.169Z,13.45
2018-01-25T21:46:26.094Z,13.43
2018-01-25T21:49:04.827Z,13.51
2018-01-25T21:51:38.212Z,13.44
2018-01-25T21:54:17.170Z,12.92
2018-01-25T21:56:50.481Z,12.81
